createdAt,value
2018-03-18T00:00:15.338Z,93082.16
2018-03-18T00:03:19.677Z,93085.16
2018-03-18T00:06:22.977Z,93078.53
2018-03-18T00:09:26.564Z,93078.64
2018-03-18T00:12:30.729Z,93081.69
2018-03-18T00:15:34.013Z,93089.73
2018-03-18T00:18:37.289Z,93088.05
2018-03-18T00:21:40.587Z,93079.55
2018-03-18T00:24:44.622Z,93084.45
2018-03-18T00:27:49.214Z,93087.44
2018-03-18T00:30:54.571Z,93080.28
2018-03-18T00:33:58.907Z,93078.91
2018-03-18T00:37:02.187Z,93085.41
2018-03-18T00:40:06.319Z,93084.02
2018-03-18T00:43:09.651Z,93092.72
2018-03-18T00:46:12.973Z,93093.25
2018-03-18T00:49:16.250Z,93092.48
2018-03-18T00:52:19.537Z,93107.86
2018-03-18T00:55:23.732Z,93102.78
2018-03-18T00:58:27.005Z,93110.87
2018-03-18T01:01:30.415Z,93116.86
2018-03-18T01:04:34.737Z,93114.99
2018-03-18T01:07:38.860Z,93124.83
2018-03-18T01:10:42.164Z,93121.36
2018-03-18T01:13:46.808Z,93123.31
2018-03-18T01:16:50.143Z,93131.81
2018-03-18T01:19:53.501Z,93135.63
2018-03-18T01:22:56.794Z,93131.45
2018-03-18T01:26:00.081Z,93136.13
2018-03-18T01:29:03.361Z,93134.54
2018-03-18T01:32:07.795Z,93130.92
2018-03-18T01:35:11.832Z,93133.91
2018-03-18T01:38:15.117Z,93128.98
2018-03-18T01:41:18.393Z,93134.34
2018-03-18T01:44:22.426Z,93131.04
2018-03-18T01:47:25.895Z,93135.48
2018-03-18T01:50:29.186Z,93140.72
2018-03-18T01:53:32.638Z,93139.42
2018-03-18T01:56:35.916Z,93134.03
2018-03-18T01:59:39.962Z,93133.48
2018-03-18T02:02:43.251Z,93136.08
2018-03-18T02:05:46.526Z,93135.63
2018-03-18T02:08:49.841Z,93139.56
2018-03-18T02:11:53.117Z,93134.86
2018-03-18T02:14:57.145Z,93117.66
2018-03-18T02:18:00.538Z,93114.22
2018-03-18T02:21:03.943Z,93099.12
2018-03-18T02:24:07.211Z,93075.30
2018-03-18T02:27:10.621Z,93086.77
2018-03-18T02:30:14.753Z,93089.08
2018-03-18T02:33:18.033Z,93105.14
2018-03-18T02:36:22.074Z,93100.89
2018-03-18T02:39:25.542Z,93108.27
2018-03-18T02:42:30.412Z,93112.26
2018-03-18T02:45:33.701Z,93121.13
2018-03-18T02:48:36.982Z,93115.64
2018-03-18T02:51:41.022Z,93123.19
2018-03-18T02:54:44.298Z,93124.97
2018-03-18T02:57:50.562Z,93116.47
2018-03-18T03:00:54.601Z,93126.09
2018-03-18T03:03:57.903Z,93126.39
2018-03-18T03:07:01.182Z,93119.45
2018-03-18T03:10:04.786Z,93124.08
2018-03-18T03:13:08.099Z,93123.67
2018-03-18T03:16:11.698Z,93128.45
2018-03-18T03:19:14.970Z,93132.13
2018-03-18T03:22:19.016Z,93132.17
2018-03-18T03:25:22.306Z,93136.17
2018-03-18T03:28:25.581Z,93134.34
2018-03-18T03:31:29.887Z,93134.34
2018-03-18T03:34:33.164Z,93134.20
2018-03-18T03:37:37.380Z,93145.44
2018-03-18T03:40:40.673Z,93149.55
2018-03-18T03:43:43.971Z,93150.09
2018-03-18T03:46:47.248Z,93147.08
2018-03-18T03:49:50.517Z,93148.87
2018-03-18T03:52:54.707Z,93158.83
2018-03-18T03:55:58.314Z,93152.78
2018-03-18T03:59:01.846Z,93152.59
2018-03-18T04:02:05.890Z,93148.52
2018-03-18T04:05:09.178Z,93151.59
2018-03-18T04:08:12.472Z,93155.36
2018-03-18T04:11:15.737Z,93157.29
2018-03-18T04:14:20.209Z,93152.75
2018-03-18T04:17:23.600Z,93151.82
2018-03-18T04:20:26.889Z,93155.66
2018-03-18T04:23:30.167Z,93158.40
2018-03-18T04:26:34.239Z,93158.90
2018-03-18T04:29:37.518Z,93151.46
2018-03-18T04:32:40.807Z,93158.91
2018-03-18T04:35:44.074Z,93156.94
2018-03-18T04:38:47.395Z,93151.28
2018-03-18T04:41:50.690Z,93150.32
2018-03-18T04:44:53.983Z,93157.42
2018-03-18T04:47:57.254Z,93148.42
2018-03-18T04:51:00.584Z,93153.86
2018-03-18T04:54:03.875Z,93148.37
2018-03-18T04:57:08.022Z,93154.76
2018-03-18T05:00:11.402Z,93162.17
2018-03-18T05:03:14.937Z,93171.97
2018-03-18T05:06:18.209Z,93173.55
2018-03-18T05:09:21.486Z,93174.49
2018-03-18T05:12:24.761Z,93172.96
2018-03-18T05:15:28.033Z,93172.22
2018-03-18T05:18:32.136Z,93179.44
2018-03-18T05:21:35.466Z,93187.00
2018-03-18T05:24:38.719Z,93189.91
2018-03-18T05:27:42.010Z,93189.28
2018-03-18T05:30:45.362Z,93190.81
2018-03-18T05:33:48.654Z,93196.32
2018-03-18T05:36:51.946Z,93198.20
2018-03-18T05:39:55.253Z,93201.65
2018-03-18T05:42:58.641Z,93205.44
2018-03-18T05:46:02.081Z,93213.29
2018-03-18T05:49:06.131Z,93214.77
2018-03-18T05:52:09.464Z,93216.58
2018-03-18T05:55:13.004Z,93218.95
2018-03-18T05:58:31.308Z,93236.96
2018-03-18T06:01:35.621Z,93239.73
2018-03-18T06:04:38.969Z,93248.34
2018-03-18T06:07:42.412Z,93245.38
2018-03-18T06:10:45.814Z,93251.56
2018-03-18T06:13:49.108Z,93258.05
2018-03-18T06:16:52.967Z,93265.78
2018-03-18T06:19:56.239Z,93260.03
2018-03-18T06:22:59.550Z,93263.23
2018-03-18T06:26:02.953Z,93263.16
2018-03-18T06:29:06.333Z,93267.31
2018-03-18T06:32:09.619Z,93269.72
2018-03-18T06:35:13.715Z,93276.74
2018-03-18T06:38:17.108Z,93274.50
2018-03-18T06:41:21.178Z,93289.28
2018-03-18T06:44:24.672Z,93291.28
2018-03-18T06:47:28.132Z,93295.90
2018-03-18T06:50:31.544Z,93306.28
2018-03-18T06:53:35.578Z,93312.04
2018-03-18T06:56:39.069Z,93323.94
2018-03-18T06:59:43.122Z,93323.47
2018-03-18T07:02:46.500Z,93327.23
2018-03-18T07:05:49.796Z,93335.48
2018-03-18T07:08:53.196Z,93342.31
2018-03-18T07:11:56.470Z,93350.31
2018-03-18T07:14:59.829Z,93346.72
2018-03-18T07:18:03.097Z,93364.34
2018-03-18T07:21:06.378Z,93365.16
2018-03-18T07:24:09.664Z,93363.41
2018-03-18T07:27:13.694Z,93365.45
2018-03-18T07:30:17.093Z,93364.60
2018-03-18T07:33:20.368Z,93374.98
2018-03-18T07:36:24.513Z,93382.06
2018-03-18T07:39:27.910Z,93380.70
2018-03-18T07:42:31.215Z,93385.81
2018-03-18T07:45:34.536Z,93381.38
2018-03-18T07:48:37.916Z,93378.44
2018-03-18T07:51:41.185Z,93383.17
2018-03-18T07:54:45.220Z,93390.23
2018-03-18T07:57:48.490Z,93391.11
2018-03-18T08:00:52.538Z,93395.06
2018-03-18T08:03:55.827Z,93404.48
2018-03-18T08:06:59.121Z,93402.67
2018-03-18T08:10:03.195Z,93403.41
2018-03-18T08:13:06.647Z,93406.48
2018-03-18T08:16:09.925Z,93409.17
2018-03-18T08:19:14.016Z,93404.07
2018-03-18T08:22:17.368Z,93414.84
2018-03-18T08:25:20.648Z,93414.28
2018-03-18T08:28:23.917Z,93412.86
2018-03-18T08:31:27.513Z,93411.27
2018-03-18T08:34:31.560Z,93410.82
2018-03-18T08:37:35.587Z,93410.17
2018-03-18T08:40:38.865Z,93420.99
2018-03-18T08:43:42.911Z,93423.95
2018-03-18T08:46:46.542Z,93432.52
2018-03-18T08:49:49.956Z,93427.29
2018-03-18T08:52:53.234Z,93427.18
2018-03-18T08:55:56.945Z,93427.09
2018-03-18T08:59:00.284Z,93429.88
2018-03-18T09:02:04.461Z,93439.46
2018-03-18T09:05:07.730Z,93432.73
2018-03-18T09:08:11.464Z,93432.42
2018-03-18T09:11:15.544Z,93436.57
2018-03-18T09:14:18.869Z,93438.34
2018-03-18T09:17:22.227Z,93441.48
2018-03-18T09:20:25.546Z,93446.98
2018-03-18T09:23:28.946Z,93450.23
2018-03-18T09:26:32.270Z,93453.64
2018-03-18T09:29:35.569Z,93455.89
2018-03-18T09:32:38.896Z,93459.03
2018-03-18T09:35:42.238Z,93456.59
2018-03-18T09:38:46.960Z,93465.92
2018-03-18T09:41:50.365Z,93462.75
2018-03-18T09:44:53.692Z,93469.70
2018-03-18T09:47:56.961Z,93475.23
2018-03-18T09:51:00.236Z,93474.31
2018-03-18T09:54:04.266Z,93472.76
2018-03-18T09:57:08.589Z,93465.56
2018-03-18T10:00:22.729Z,93469.83
2018-03-18T10:03:26.818Z,93472.47
2018-03-18T10:06:30.092Z,93472.30
2018-03-18T10:09:33.381Z,93476.22
2018-03-18T10:12:36.651Z,93480.78
2018-03-18T10:15:39.949Z,93483.62
2018-03-18T10:18:43.241Z,93492.08
2018-03-18T10:21:47.295Z,93491.92
2018-03-18T10:25:16.729Z,93483.26
2018-03-18T10:28:20.029Z,93477.73
2018-03-18T10:31:23.306Z,93485.23
2018-03-18T10:34:26.843Z,93478.33
2018-03-18T10:37:30.137Z,93479.34
2018-03-18T10:40:33.454Z,93485.67
2018-03-18T10:43:37.490Z,93494.50
2018-03-18T10:46:41.164Z,93481.80
2018-03-18T10:49:46.036Z,93479.63
2018-03-18T10:52:49.306Z,93484.20
2018-03-18T10:55:52.574Z,93486.00
2018-03-18T10:58:55.856Z,93489.42
2018-03-18T11:02:04.534Z,93486.28
2018-03-18T11:05:08.834Z,93488.39
2018-03-18T11:08:12.316Z,93493.50
2018-03-18T11:11:16.507Z,93490.32
2018-03-18T11:14:19.793Z,93489.16
2018-03-18T11:17:23.092Z,93491.41
2018-03-18T11:20:26.393Z,93492.30
2018-03-18T11:23:30.006Z,93488.20
2018-03-18T11:26:33.387Z,93494.47
2018-03-18T11:29:36.817Z,93498.02
2018-03-18T11:32:40.162Z,93489.46
2018-03-18T11:35:44.504Z,93490.44
2018-03-18T11:38:48.600Z,93494.28
2018-03-18T11:41:52.735Z,93488.81
2018-03-18T11:44:56.778Z,93488.23
2018-03-18T11:48:00.112Z,93488.77
2018-03-18T11:51:03.646Z,93495.52
2018-03-18T11:54:07.675Z,93492.59
2018-03-18T11:57:10.989Z,93483.36
2018-03-18T12:00:14.998Z,93488.82
2018-03-18T12:03:18.309Z,93485.67
2018-03-18T12:06:21.647Z,93484.80
2018-03-18T12:09:26.829Z,93488.33
2018-03-18T12:12:30.706Z,93477.81
2018-03-18T12:15:34.099Z,93485.25
2018-03-18T12:18:37.448Z,93491.97
2018-03-18T12:21:41.586Z,93489.81
2018-03-18T12:24:44.849Z,93477.02
2018-03-18T12:27:48.632Z,93496.31
2018-03-18T12:30:51.911Z,93482.56
2018-03-18T12:33:55.221Z,93484.50
2018-03-18T12:36:58.511Z,93486.13
2018-03-18T12:40:21.241Z,93488.00
2018-03-18T12:43:30.825Z,93488.70
2018-03-18T12:46:35.684Z,93489.34
2018-03-18T12:49:39.245Z,93492.40
2018-03-18T12:52:42.513Z,93491.22
2018-03-18T12:55:45.822Z,93489.39
2018-03-18T12:58:49.172Z,93497.70
2018-03-18T13:01:52.454Z,93494.67
2018-03-18T13:04:56.005Z,93494.70
2018-03-18T13:07:59.491Z,93497.68
2018-03-18T13:11:02.832Z,93498.77
2018-03-18T13:14:06.210Z,93500.56
2018-03-18T13:17:09.509Z,93503.20
2018-03-18T13:20:12.802Z,93501.23
2018-03-18T13:23:16.130Z,93506.45
2018-03-18T13:26:19.736Z,93504.77
2018-03-18T13:29:23.072Z,93514.36
2018-03-18T13:32:26.405Z,93515.29
2018-03-18T13:35:29.699Z,93526.95
2018-03-18T13:38:32.973Z,93518.16
2018-03-18T13:41:37.317Z,93526.80
2018-03-18T13:44:40.903Z,93541.33
2018-03-18T13:47:44.199Z,93539.05
2018-03-18T13:50:48.590Z,93547.66
2018-03-18T13:53:52.150Z,93544.35
2018-03-18T13:57:12.805Z,93548.59
2018-03-18T14:00:16.202Z,93556.38
2018-03-18T14:03:20.292Z,93562.58
2018-03-18T14:06:23.826Z,93555.63
2018-03-18T14:09:27.662Z,93558.66
2018-03-18T14:12:30.983Z,93553.21
2018-03-18T14:15:34.363Z,93566.11
2018-03-18T14:18:37.761Z,93559.45
2018-03-18T14:21:41.810Z,93545.77
2018-03-18T14:24:45.181Z,93539.19
2018-03-18T14:27:48.460Z,93560.60
2018-03-18T14:30:52.526Z,93567.02
2018-03-18T14:33:55.818Z,93560.29
2018-03-18T14:36:59.152Z,93560.00
2018-03-18T14:40:02.582Z,93561.08
2018-03-18T14:43:05.923Z,93561.39
2018-03-18T14:46:09.201Z,93569.41
2018-03-18T14:49:12.475Z,93575.91
2018-03-18T14:52:15.802Z,93576.20
2018-03-18T14:55:20.108Z,93575.17
2018-03-18T14:58:23.405Z,93581.51
2018-03-18T15:01:27.430Z,93574.46
2018-03-18T15:04:30.689Z,93576.39
2018-03-18T15:07:34.757Z,93578.61
2018-03-18T15:10:38.120Z,93587.42
2018-03-18T15:13:41.610Z,93589.49
2018-03-18T15:16:45.775Z,93589.89
2018-03-18T15:19:49.054Z,93593.62
2018-03-18T15:22:52.333Z,93595.91
2018-03-18T15:25:56.363Z,93599.89
2018-03-18T15:28:59.814Z,93597.42
2018-03-18T15:32:03.895Z,93600.03
2018-03-18T15:35:07.221Z,93602.10
2018-03-18T15:38:10.684Z,93608.16
2018-03-18T15:41:13.987Z,93608.39
2018-03-18T15:44:17.270Z,93616.64
2018-03-18T15:47:20.552Z,93614.87
2018-03-18T15:50:24.701Z,93618.91
2018-03-18T15:53:28.009Z,93629.30
2018-03-18T15:56:31.285Z,93630.96
2018-03-18T15:59:34.691Z,93639.75
2018-03-18T16:02:37.995Z,93638.95
2018-03-18T16:05:41.381Z,93644.16
2018-03-18T16:08:44.682Z,93650.55
2018-03-18T16:11:47.972Z,93645.36
2018-03-18T16:14:51.368Z,93650.28
2018-03-18T16:17:54.671Z,93657.31
2018-03-18T16:20:57.975Z,93669.20
2018-03-18T16:24:01.321Z,93665.56
2018-03-18T16:27:04.662Z,93674.19
2018-03-18T16:30:26.659Z,93677.28
2018-03-18T16:33:29.957Z,93675.59
2018-03-18T16:36:33.225Z,93678.47
2018-03-18T16:39:36.597Z,93679.82
2018-03-18T16:42:39.923Z,93681.42
2018-03-18T16:45:43.205Z,93692.41
2018-03-18T16:48:46.495Z,93693.26
2018-03-18T16:51:50.591Z,93697.64
2018-03-18T16:54:54.693Z,93701.79
2018-03-18T16:57:58.821Z,93700.63
2018-03-18T17:01:02.969Z,93695.64
2018-03-18T17:04:06.273Z,93700.56
2018-03-18T17:07:09.561Z,93701.07
2018-03-18T17:10:12.849Z,93709.98
2018-03-18T17:13:16.117Z,93709.52
2018-03-18T17:16:19.440Z,93719.28
2018-03-18T17:19:23.827Z,93723.45
2018-03-18T17:22:28.564Z,93730.16
2018-03-18T17:25:31.857Z,93736.28
2018-03-18T17:28:35.165Z,93741.41
2018-03-18T17:31:39.783Z,93740.73
2018-03-18T17:34:44.218Z,93750.69
2018-03-18T17:37:48.044Z,93746.88
2018-03-18T17:40:51.314Z,93757.19
2018-03-18T17:43:54.682Z,93753.48
2018-03-18T17:47:15.902Z,93757.33
2018-03-18T17:54:14.045Z,93767.27
2018-03-18T17:57:17.369Z,93767.42
2018-03-18T18:00:21.438Z,93784.23
2018-03-18T18:03:24.721Z,93782.75
2018-03-18T18:06:28.003Z,93780.70
2018-03-18T18:09:31.320Z,93782.00
2018-03-18T18:12:35.395Z,93783.95
2018-03-18T18:15:38.692Z,93790.28
2018-03-18T18:18:42.789Z,93788.80
2018-03-18T18:21:46.971Z,93793.57
2018-03-18T18:24:50.636Z,93803.42
2018-03-18T18:27:55.053Z,93803.33
2018-03-18T18:30:58.665Z,93800.97
2018-03-18T18:34:01.993Z,93806.09
2018-03-18T18:37:05.307Z,93800.47
2018-03-18T18:40:08.819Z,93803.44
2018-03-18T18:43:12.985Z,93806.92
2018-03-18T18:46:16.282Z,93810.61
2018-03-18T18:49:19.685Z,93800.37
2018-03-18T18:52:23.014Z,93812.84
2018-03-18T18:55:26.302Z,93810.80
2018-03-18T18:58:29.592Z,93815.67
2018-03-18T19:01:32.937Z,93820.34
2018-03-18T19:04:36.205Z,93818.00
2018-03-18T19:07:39.683Z,93822.34
2018-03-18T19:10:42.959Z,93817.52
2018-03-18T19:13:47.092Z,93828.38
2018-03-18T19:16:50.366Z,93823.18
2018-03-18T19:20:12.144Z,93826.30
2018-03-18T19:23:17.359Z,93827.27
2018-03-18T19:26:21.075Z,93819.98
2018-03-18T19:29:24.417Z,93828.20
2018-03-18T19:32:27.729Z,93824.83
2018-03-18T19:35:31.108Z,93830.00
2018-03-18T19:38:34.389Z,93835.48
2018-03-18T19:41:37.661Z,93840.36
2018-03-18T19:44:41.254Z,93836.98
2018-03-18T19:47:44.763Z,93846.25
2018-03-18T19:50:48.045Z,93841.44
2018-03-18T19:53:52.090Z,93855.27
2018-03-18T19:56:55.774Z,93844.58
2018-03-18T19:59:59.907Z,93844.00
2018-03-18T20:03:03.213Z,93848.22
2018-03-18T20:06:06.493Z,93862.16
2018-03-18T20:09:09.764Z,93853.06
2018-03-18T20:12:13.825Z,93853.91
2018-03-18T20:15:17.117Z,93857.45
2018-03-18T20:18:20.561Z,93857.03
2018-03-18T20:21:23.905Z,93855.69
2018-03-18T20:24:28.663Z,93857.30
2018-03-18T20:27:31.988Z,93866.90
2018-03-18T20:30:35.261Z,93861.21
2018-03-18T20:33:38.555Z,93862.23
2018-03-18T20:36:41.829Z,93867.23
2018-03-18T20:40:05.533Z,93861.52
2018-03-18T20:43:10.335Z,93866.37
2018-03-18T20:46:14.485Z,93869.17
2018-03-18T20:49:18.957Z,93873.70
2018-03-18T20:52:23.885Z,93876.94
2018-03-18T20:55:27.595Z,93872.58
2018-03-18T20:58:31.520Z,93883.59
2018-03-18T21:01:34.917Z,93875.41
2018-03-18T21:04:38.224Z,93882.42
2018-03-18T21:07:49.224Z,93886.01
2018-03-18T21:11:10.000Z,93890.24
2018-03-18T21:14:14.911Z,93877.50
2018-03-18T21:17:19.242Z,93885.38
2018-03-18T21:20:22.568Z,93879.09
2018-03-18T21:23:26.749Z,93880.09
2018-03-18T21:26:30.046Z,93884.22
2018-03-18T21:29:33.393Z,93884.53
2018-03-18T21:32:37.429Z,93885.14
2018-03-18T21:35:40.721Z,93889.73
2018-03-18T21:38:44.030Z,93885.78
2018-03-18T21:41:47.315Z,93885.25
2018-03-18T21:44:50.737Z,93885.08
2018-03-18T21:47:54.120Z,93888.11
2018-03-18T21:50:57.423Z,93885.77
2018-03-18T21:54:00.718Z,93883.52
2018-03-18T21:57:04.006Z,93884.36
2018-03-18T22:00:25.550Z,93888.07
2018-03-18T22:03:29.645Z,93885.40
2018-03-18T22:06:32.981Z,93885.70
2018-03-18T22:09:36.678Z,93889.34
2018-03-18T22:12:39.959Z,93881.70
2018-03-18T22:15:44.011Z,93884.49
2018-03-18T22:18:47.367Z,93880.94
2018-03-18T22:21:50.634Z,93887.52
2018-03-18T22:24:53.902Z,93885.44
2018-03-18T22:27:57.560Z,93881.67
2018-03-18T22:31:00.870Z,93885.56
2018-03-18T22:34:04.153Z,93892.45
2018-03-18T22:37:07.429Z,93883.33
2018-03-18T22:40:11.480Z,93892.80
2018-03-18T22:43:14.801Z,93884.66
2018-03-18T22:46:18.200Z,93889.27
2018-03-18T22:49:21.570Z,93887.61
2018-03-18T22:52:24.845Z,93885.80
2018-03-18T22:55:28.895Z,93884.59
2018-03-18T22:58:34.247Z,93887.05
2018-03-18T23:01:37.633Z,93888.05
2018-03-18T23:04:40.938Z,93889.39
2018-03-18T23:07:44.237Z,93892.98
2018-03-18T23:10:47.516Z,93891.11
2018-03-18T23:13:50.822Z,93895.45
2018-03-18T23:16:54.109Z,93888.66
2018-03-18T23:19:57.400Z,93887.75
2018-03-18T23:23:00.766Z,93888.05
2018-03-18T23:26:04.017Z,93890.11
2018-03-18T23:29:07.280Z,93894.67
2018-03-18T23:32:11.333Z,93892.11
2018-03-18T23:35:14.892Z,93906.13
2018-03-18T23:38:19.056Z,93892.50
2018-03-18T23:41:22.355Z,93898.20
2018-03-18T23:44:25.630Z,93888.52
2018-03-18T23:47:28.903Z,93886.19
2018-03-18T23:50:34.366Z,93889.73
2018-03-18T23:53:37.692Z,93888.89
2018-03-18T23:56:40.969Z,93886.20
2018-03-18T23:59:45.034Z,93886.25
